sensor_id;sensor_type;location;lat;lon;timestamp;temperature;humidity
53053;DHT22;38934;52.690;6.184;2023-04-19T02:59:05;8.30;99.90
53053;DHT22;38934;52.690;6.184;2023-04-19T03:01:32;8.00;99.90
53053;DHT22;38934;52.690;6.184;2023-04-19T03:03:59;7.90;99.90
53053;DHT22;38934;52.690;6.184;2023-04-19T03:06:28;7.90;99.90
53053;DHT22;38934;52.690;6.184;2023-04-19T03:08:53;7.80;99.90
53053;DHT22;38934;52.690;6.184;2023-04-19T03:11:19;7.80;99.90
53053;DHT22;38934;52.690;6.184;2023-04-19T03:13:45;7.80;99.90
53053;DHT22;38934;52.690;6.184;2023-04-19T03:16:12;7.80;99.90
53053;DHT22;38934;52.690;6.184;2023-04-19T03:18:38;7.60;99.90
53053;DHT22;38934;52.690;6.184;2023-04-19T03:21:03;7.70;99.90
53053;DHT22;38934;52.690;6.184;2023-04-19T03:23:29;7.70;99.90
53053;DHT22;38934;52.690;6.184;2023-04-19T03:25:55;7.60;99.90
53053;DHT22;38934;52.690;6.184;2023-04-19T03:28:21;8.40;99.90
53053;DHT22;38934;52.690;6.184;2023-04-19T03:30:47;7.60;99.90
53053;DHT22;38934;52.690;6.184;2023-04-19T03:33:13;7.50;99.90
53053;DHT22;38934;52.690;6.184;2023-04-19T03:35:38;7.50;99.90
53053;DHT22;38934;52.690;6.184;2023-04-19T03:38:04;7.40;99.90
53053;DHT22;38934;52.690;6.184;2023-04-19T03:40:32;7.30;99.90
53053;DHT22;38934;52.690;6.184;2023-04-19T03:42:58;7.30;99.90
53053;DHT22;38934;52.690;6.184;2023-04-19T03:45:23;7.20;99.90
53053;DHT22;38934;52.690;6.184;2023-04-19T03:47:49;7.20;99.90
53053;DHT22;38934;52.690;6.184;2023-04-19T03:50:15;7.10;99.90
53053;DHT22;38934;52.690;6.184;2023-04-19T03:52:41;7.10;99.90
53053;DHT22;38934;52.690;6.184;2023-04-19T03:55:14;7.70;99.90
53053;DHT22;38934;52.690;6.184;2023-04-19T03:57:40;7.00;99.90
53053;DHT22;38934;52.690;6.184;2023-04-19T04:00:06;8.10;99.90
53053;DHT22;38934;52.690;6.184;2023-04-19T04:02:33;6.90;99.90
53053;DHT22;38934;52.690;6.184;2023-04-19T04:05:00;6.80;99.90
53053;DHT22;38934;52.690;6.184;2023-04-19T04:07:26;7.60;99.90
53053;DHT22;38934;52.690;6.184;2023-04-19T04:09:52;6.70;99.90
53053;DHT22;38934;52.690;6.184;2023-04-19T04:12:18;6.70;99.90
53053;DHT22;38934;52.690;6.184;2023-04-19T04:14:51;6.60;99.90
53053;DHT22;38934;52.690;6.184;2023-04-19T04:17:16;6.60;99.90
53053;DHT22;38934;52.690;6.184;2023-04-19T04:19:42;6.50;99.90
53053;DHT22;38934;52.690;6.184;2023-04-19T04:22:11;7.10;99.90
53053;DHT22;38934;52.690;6.184;2023-04-19T04:24:38;6.40;99.90
53053;DHT22;38934;52.690;6.184;2023-04-19T04:27:09;6.30;99.90
53053;DHT22;38934;52.690;6.184;2023-04-19T04:29:36;6.20;99.90
53053;DHT22;38934;52.690;6.184;2023-04-19T04:32:03;6.20;99.90
53053;DHT22;38934;52.690;6.184;2023-04-19T04:34:28;6.20;99.90
53053;DHT22;38934;52.690;6.184;2023-04-19T04:37:01;6.10;99.90
53053;DHT22;38934;52.690;6.184;2023-04-19T04:39:29;6.10;99.90
53053;DHT22;38934;52.690;6.184;2023-04-19T04:41:55;6.00;99.90
53053;DHT22;38934;52.690;6.184;2023-04-19T04:44:23;6.00;99.90
53053;DHT22;38934;52.690;6.184;2023-04-19T04:46:51;6.00;99.90
53053;DHT22;38934;52.690;6.184;2023-04-19T04:49:16;6.00;99.90
53053;DHT22;38934;52.690;6.184;2023-04-19T04:51:42;7.10;99.90
53053;DHT22;38934;52.690;6.184;2023-04-19T04:54:07;5.90;99.90
53053;DHT22;38934;52.690;6.184;2023-04-19T04:56:33;5.90;99.90
53053;DHT22;38934;52.690;6.184;2023-04-19T04:58:58;5.90;99.90
53053;DHT22;38934;52.690;6.184;2023-04-19T05:01:29;6.10;99.90
53053;DHT22;38934;52.690;6.184;2023-04-19T05:03:59;5.90;99.90
53053;DHT22;38934;52.690;6.184;2023-04-19T05:06:31;5.90;99.90
53053;DHT22;38934;52.690;6.184;2023-04-19T05:08:57;5.90;99.90
53053;DHT22;38934;52.690;6.184;2023-04-19T05:11:24;5.90;99.90
53053;DHT22;38934;52.690;6.184;2023-04-19T05:13:49;5.90;99.90
53053;DHT22;38934;52.690;6.184;2023-04-19T05:16:15;5.90;99.90
53053;DHT22;38934;52.690;6.184;2023-04-19T05:18:40;5.90;99.90
53053;DHT22;38934;52.690;6.184;2023-04-19T05:21:06;5.90;99.90
53053;DHT22;38934;52.690;6.184;2023-04-19T05:23:36;6.00;99.90
53053;DHT22;38934;52.690;6.184;2023-04-19T05:26:02;6.00;99.90
53053;DHT22;38934;52.690;6.184;2023-04-19T05:28:28;6.00;99.90
53053;DHT22;38934;52.690;6.184;2023-04-19T05:30:54;6.00;99.90
53053;DHT22;38934;52.690;6.184;2023-04-19T05:33:21;6.00;99.90
53053;DHT22;38934;52.690;6.184;2023-04-19T05:35:46;6.00;99.90
53053;DHT22;38934;52.690;6.184;2023-04-19T05:38:12;6.10;99.90
53053;DHT22;38934;52.690;6.184;2023-04-19T05:40:37;6.10;99.90
53053;DHT22;38934;52.690;6.184;2023-04-19T05:43:04;6.10;99.90
53053;DHT22;38934;52.690;6.184;2023-04-19T05:45:30;6.10;99.90
53053;DHT22;38934;52.690;6.184;2023-04-19T05:47:56;6.10;99.90
53053;DHT22;38934;52.690;6.184;2023-04-19T05:50:21;6.10;99.90
53053;DHT22;38934;52.690;6.184;2023-04-19T05:52:47;6.20;99.90
53053;DHT22;38934;52.690;6.184;2023-04-19T05:55:13;6.80;99.90
53053;DHT22;38934;52.690;6.184;2023-04-19T05:57:38;6.20;99.90
53053;DHT22;38934;52.690;6.184;2023-04-19T06:00:04;6.20;99.90
53053;DHT22;38934;52.690;6.184;2023-04-19T06:02:35;6.30;99.90
53053;DHT22;38934;52.690;6.184;2023-04-19T06:05:00;6.30;99.90
53053;DHT22;38934;52.690;6.184;2023-04-19T06:07:30;6.40;99.90
53053;DHT22;38934;52.690;6.184;2023-04-19T06:09:56;6.40;99.90
53053;DHT22;38934;52.690;6.184;2023-04-19T06:12:22;6.40;99.90
53053;DHT22;38934;52.690;6.184;2023-04-19T06:14:49;6.50;99.90
53053;DHT22;38934;52.690;6.184;2023-04-19T06:17:15;6.50;99.90
53053;DHT22;38934;52.690;6.184;2023-04-19T06:19:41;6.50;99.90
53053;DHT22;38934;52.690;6.184;2023-04-19T06:22:07;6.60;99.90
53053;DHT22;38934;52.690;6.184;2023-04-19T06:24:35;6.70;99.90
53053;DHT22;38934;52.690;6.184;2023-04-19T06:27:01;6.70;99.90
53053;DHT22;38934;52.690;6.184;2023-04-19T06:29:26;6.80;99.90
53053;DHT22;38934;52.690;6.184;2023-04-19T06:31:52;6.90;99.90
53053;DHT22;38934;52.690;6.184;2023-04-19T06:34:19;6.90;99.90
53053;DHT22;38934;52.690;6.184;2023-04-19T06:36:45;6.90;99.90
53053;DHT22;38934;52.690;6.184;2023-04-19T06:39:14;7.00;99.90
53053;DHT22;38934;52.690;6.184;2023-04-19T06:41:41;7.00;99.90
53053;DHT22;38934;52.690;6.184;2023-04-19T06:44:06;7.10;99.90
53053;DHT22;38934;52.690;6.184;2023-04-19T06:46:32;7.20;99.90
53053;DHT22;38934;52.690;6.184;2023-04-19T06:48:58;7.20;99.90
53053;DHT22;38934;52.690;6.184;2023-04-19T06:51:24;7.30;99.90
53053;DHT22;38934;52.690;6.184;2023-04-19T06:53:53;7.40;99.90
53053;DHT22;38934;52.690;6.184;2023-04-19T06:56:48;7.50;99.90
53053;DHT22;38934;52.690;6.184;2023-04-19T06:59:16;7.50;99.90
53053;DHT22;38934;52.690;6.184;2023-04-19T07:01:46;7.60;99.90
53053;DHT22;38934;52.690;6.184;2023-04-19T07:04:12;7.60;99.90
53053;DHT22;38934;52.690;6.184;2023-04-19T07:06:38;8.10;99.90
53053;DHT22;38934;52.690;6.184;2023-04-19T07:09:05;7.70;99.90
53053;DHT22;38934;52.690;6.184;2023-04-19T07:11:31;7.80;99.90
53053;DHT22;38934;52.690;6.184;2023-04-19T07:13:57;7.90;99.90
53053;DHT22;38934;52.690;6.184;2023-04-19T07:16:25;7.90;99.90
53053;DHT22;38934;52.690;6.184;2023-04-19T07:18:52;8.00;99.90
53053;DHT22;38934;52.690;6.184;2023-04-19T07:21:25;8.00;99.90
53053;DHT22;38934;52.690;6.184;2023-04-19T07:23:51;8.10;99.90
53053;DHT22;38934;52.690;6.184;2023-04-19T07:26:17;8.10;99.90
53053;DHT22;38934;52.690;6.184;2023-04-19T07:28:42;9.00;99.90
53053;DHT22;38934;52.690;6.184;2023-04-19T07:31:14;8.30;99.90
53053;DHT22;38934;52.690;6.184;2023-04-19T07:33:41;8.30;99.90
53053;DHT22;38934;52.690;6.184;2023-04-19T07:36:07;8.40;99.90
53053;DHT22;38934;52.690;6.184;2023-04-19T07:38:36;8.50;99.90
53053;DHT22;38934;52.690;6.184;2023-04-19T07:41:02;8.90;99.90
53053;DHT22;38934;52.690;6.184;2023-04-19T07:43:29;8.60;99.90
53053;DHT22;38934;52.690;6.184;2023-04-19T07:45:56;8.70;99.90
53053;DHT22;38934;52.690;6.184;2023-04-19T07:48:22;8.70;99.90
53053;DHT22;38934;52.690;6.184;2023-04-19T07:50:47;8.80;99.90
53053;DHT22;38934;52.690;6.184;2023-04-19T07:53:13;8.80;99.90
53053;DHT22;38934;52.690;6.184;2023-04-19T07:55:41;8.90;99.90
53053;DHT22;38934;52.690;6.184;2023-04-19T07:58:07;9.00;99.90
53053;DHT22;38934;52.690;6.184;2023-04-19T08:00:32;9.00;99.90
53053;DHT22;38934;52.690;6.184;2023-04-19T08:03:01;9.10;99.90
53053;DHT22;38934;52.690;6.184;2023-04-19T08:05:28;9.10;99.90
53053;DHT22;38934;52.690;6.184;2023-04-19T08:07:54;9.10;99.90
53053;DHT22;38934;52.690;6.184;2023-04-19T08:10:21;9.20;99.90
53053;DHT22;38934;52.690;6.184;2023-04-19T08:12:49;9.30;99.90
53053;DHT22;38934;52.690;6.184;2023-04-19T08:15:15;9.40;99.90
53053;DHT22;38934;52.690;6.184;2023-04-19T08:17:41;9.40;99.90
53053;DHT22;38934;52.690;6.184;2023-04-19T08:20:11;9.50;99.90
53053;DHT22;38934;52.690;6.184;2023-04-19T08:22:37;9.50;99.90
53053;DHT22;38934;52.690;6.184;2023-04-19T08:25:05;9.70;99.90
53053;DHT22;38934;52.690;6.184;2023-04-19T08:27:31;9.70;99.90
53053;DHT22;38934;52.690;6.184;2023-04-19T08:29:57;9.80;99.90
53053;DHT22;38934;52.690;6.184;2023-04-19T08:32:23;9.90;99.90
53053;DHT22;38934;52.690;6.184;2023-04-19T08:34:48;9.90;99.90
53053;DHT22;38934;52.690;6.184;2023-04-19T08:37:15;9.90;99.90
53053;DHT22;38934;52.690;6.184;2023-04-19T08:39:41;10.00;99.90
53053;DHT22;38934;52.690;6.184;2023-04-19T08:42:08;10.10;99.90
53053;DHT22;38934;52.690;6.184;2023-04-19T08:44:35;10.10;99.90
53053;DHT22;38934;52.690;6.184;2023-04-19T08:47:04;10.20;99.90
53053;DHT22;38934;52.690;6.184;2023-04-19T08:49:38;10.20;99.90
53053;DHT22;38934;52.690;6.184;2023-04-19T08:52:05;10.40;99.90
53053;DHT22;38934;52.690;6.184;2023-04-19T08:54:34;10.30;99.90
53053;DHT22;38934;52.690;6.184;2023-04-19T08:57:00;10.40;99.30
53053;DHT22;38934;52.690;6.184;2023-04-19T08:59:28;10.40;98.50
53053;DHT22;38934;52.690;6.184;2023-04-19T09:01:56;10.40;98.40
53053;DHT22;38934;52.690;6.184;2023-04-19T09:04:24;10.50;97.00
53053;DHT22;38934;52.690;6.184;2023-04-19T09:06:50;11.20;97.20
53053;DHT22;38934;52.690;6.184;2023-04-19T09:09:28;10.60;95.70
53053;DHT22;38934;52.690;6.184;2023-04-19T09:11:54;10.70;96.00
53053;DHT22;38934;52.690;6.184;2023-04-19T09:14:25;10.60;96.20
53053;DHT22;38934;52.690;6.184;2023-04-19T09:16:51;10.80;93.90
53053;DHT22;38934;52.690;6.184;2023-04-19T09:19:17;10.90;93.60
53053;DHT22;38934;52.690;6.184;2023-04-19T09:21:44;11.60;92.90
53053;DHT22;38934;52.690;6.184;2023-04-19T09:24:12;11.00;92.80
53053;DHT22;38934;52.690;6.184;2023-04-19T09:26:39;11.10;90.30
53053;DHT22;38934;52.690;6.184;2023-04-19T09:29:08;11.10;91.20
53053;DHT22;38934;52.690;6.184;2023-04-19T09:31:36;11.20;90.90
53053;DHT22;38934;52.690;6.184;2023-04-19T09:34:16;11.20;88.00
53053;DHT22;38934;52.690;6.184;2023-04-19T09:36:42;11.20;85.10
53053;DHT22;38934;52.690;6.184;2023-04-19T09:39:08;12.30;87.40
53053;DHT22;38934;52.690;6.184;2023-04-19T09:41:36;11.50;88.90
53053;DHT22;38934;52.690;6.184;2023-04-19T09:44:14;11.50;85.80
53053;DHT22;38934;52.690;6.184;2023-04-19T09:46:44;11.60;82.60
53053;DHT22;38934;52.690;6.184;2023-04-19T09:49:20;11.70;83.20
53053;DHT22;38934;52.690;6.184;2023-04-19T09:51:53;11.80;80.50
53053;DHT22;38934;52.690;6.184;2023-04-19T09:54:25;11.80;80.50
53053;DHT22;38934;52.690;6.184;2023-04-19T09:56:56;11.90;76.90
53053;DHT22;38934;52.690;6.184;2023-04-19T09:59:22;11.90;76.20
53053;DHT22;38934;52.690;6.184;2023-04-19T10:01:53;12.00;76.70
53053;DHT22;38934;52.690;6.184;2023-04-19T10:04:19;12.00;73.90
53053;DHT22;38934;52.690;6.184;2023-04-19T10:06:50;12.10;75.30
53053;DHT22;38934;52.690;6.184;2023-04-19T10:09:17;12.20;74.30
53053;DHT22;38934;52.690;6.184;2023-04-19T10:11:48;12.20;73.60
53053;DHT22;38934;52.690;6.184;2023-04-19T10:14:15;12.30;71.50
53053;DHT22;38934;52.690;6.184;2023-04-19T10:16:41;12.20;72.40
53053;DHT22;38934;52.690;6.184;2023-04-19T10:19:11;12.30;73.00
53053;DHT22;38934;52.690;6.184;2023-04-19T10:21:40;12.60;73.40
53053;DHT22;38934;52.690;6.184;2023-04-19T10:24:07;12.90;74.00
53053;DHT22;38934;52.690;6.184;2023-04-19T10:29:57;13.40;71.20
53053;DHT22;38934;52.690;6.184;2023-04-19T10:32:37;13.70;69.20
53053;DHT22;38934;52.690;6.184;2023-04-19T10:37:33;13.90;66.70
53053;DHT22;38934;52.690;6.184;2023-04-19T10:40:00;14.00;64.40
53053;DHT22;38934;52.690;6.184;2023-04-19T10:45:38;14.00;63.50
53053;DHT22;38934;52.690;6.184;2023-04-19T10:48:03;14.00;64.60
53053;DHT22;38934;52.690;6.184;2023-04-19T10:50:29;14.10;65.10
53053;DHT22;38934;52.690;6.184;2023-04-19T10:53:51;14.20;65.00
53053;DHT22;38934;52.690;6.184;2023-04-19T10:59:12;14.20;64.90
53053;DHT22;38934;52.690;6.184;2023-04-19T11:01:44;14.30;63.40
53053;DHT22;38934;52.690;6.184;2023-04-19T11:04:15;14.30;62.20
53053;DHT22;38934;52.690;6.184;2023-04-19T11:09:25;14.30;63.20
53053;DHT22;38934;52.690;6.184;2023-04-19T11:11:53;14.20;59.80
53053;DHT22;38934;52.690;6.184;2023-04-19T11:14:21;14.70;61.90
53053;DHT22;38934;52.690;6.184;2023-04-19T11:16:47;14.20;63.00
53053;DHT22;38934;52.690;6.184;2023-04-19T11:19:16;14.30;63.10
53053;DHT22;38934;52.690;6.184;2023-04-19T11:21:44;14.40;60.70
53053;DHT22;38934;52.690;6.184;2023-04-19T11:24:11;14.30;59.80
53053;DHT22;38934;52.690;6.184;2023-04-19T11:26:37;14.20;60.40
53053;DHT22;38934;52.690;6.184;2023-04-19T11:29:03;14.30;58.80
53053;DHT22;38934;52.690;6.184;2023-04-19T11:31:33;14.40;59.20
53053;DHT22;38934;52.690;6.184;2023-04-19T11:34:02;15.00;59.60
53053;DHT22;38934;52.690;6.184;2023-04-19T11:36:30;14.50;60.00
53053;DHT22;38934;52.690;6.184;2023-04-19T11:38:56;14.50;58.80
53053;DHT22;38934;52.690;6.184;2023-04-19T11:41:22;14.60;59.80
53053;DHT22;38934;52.690;6.184;2023-04-19T11:43:48;14.50;57.30
53053;DHT22;38934;52.690;6.184;2023-04-19T11:46:13;14.40;56.60
53053;DHT22;38934;52.690;6.184;2023-04-19T11:48:51;14.50;57.00
53053;DHT22;38934;52.690;6.184;2023-04-19T11:51:22;14.40;56.80
53053;DHT22;38934;52.690;6.184;2023-04-19T11:53:48;14.60;58.30
53053;DHT22;38934;52.690;6.184;2023-04-19T11:56:14;14.70;57.70
53053;DHT22;38934;52.690;6.184;2023-04-19T11:58:45;14.60;56.10
53053;DHT22;38934;52.690;6.184;2023-04-19T12:01:19;14.50;57.00
53053;DHT22;38934;52.690;6.184;2023-04-19T12:03:54;14.50;58.20
53053;DHT22;38934;52.690;6.184;2023-04-19T12:06:24;14.40;57.30
53053;DHT22;38934;52.690;6.184;2023-04-19T12:08:51;14.40;57.20
53053;DHT22;38934;52.690;6.184;2023-04-19T12:11:19;14.40;56.30
53053;DHT22;38934;52.690;6.184;2023-04-19T12:14:10;14.40;57.40
53053;DHT22;38934;52.690;6.184;2023-04-19T12:16:36;14.70;57.00
53053;DHT22;38934;52.690;6.184;2023-04-19T12:19:17;14.50;57.40
53053;DHT22;38934;52.690;6.184;2023-04-19T12:21:44;14.50;56.80
53053;DHT22;38934;52.690;6.184;2023-04-19T12:24:14;14.60;57.60
53053;DHT22;38934;52.690;6.184;2023-04-19T12:26:56;15.50;56.20
53053;DHT22;38934;52.690;6.184;2023-04-19T12:29:22;14.80;57.40
53053;DHT22;38934;52.690;6.184;2023-04-19T12:31:49;14.60;56.90
53053;DHT22;38934;52.690;6.184;2023-04-19T12:34:16;14.50;57.10
53053;DHT22;38934;52.690;6.184;2023-04-19T12:36:41;14.50;56.10
53053;DHT22;38934;52.690;6.184;2023-04-19T12:39:11;14.50;57.50
53053;DHT22;38934;52.690;6.184;2023-04-19T12:41:37;14.50;58.30
53053;DHT22;38934;52.690;6.184;2023-04-19T12:44:02;14.60;57.10
53053;DHT22;38934;52.690;6.184;2023-04-19T12:46:28;14.50;55.90
53053;DHT22;38934;52.690;6.184;2023-04-19T12:48:54;14.50;56.00
53053;DHT22;38934;52.690;6.184;2023-04-19T12:51:19;14.80;56.90
53053;DHT22;38934;52.690;6.184;2023-04-19T12:53:49;14.50;57.60
53053;DHT22;38934;52.690;6.184;2023-04-19T12:56:31;14.60;57.60
53053;DHT22;38934;52.690;6.184;2023-04-19T12:58:57;14.50;57.40
53053;DHT22;38934;52.690;6.184;2023-04-19T13:01:22;14.60;58.20
53053;DHT22;38934;52.690;6.184;2023-04-19T13:03:48;14.70;59.20
53053;DHT22;38934;52.690;6.184;2023-04-19T13:06:13;14.80;58.20
53053;DHT22;38934;52.690;6.184;2023-04-19T13:08:41;14.90;57.80
53053;DHT22;38934;52.690;6.184;2023-04-19T13:11:10;14.90;57.70
53053;DHT22;38934;52.690;6.184;2023-04-19T13:13:42;15.00;57.80
53053;DHT22;38934;52.690;6.184;2023-04-19T13:16:08;14.80;58.80
53053;DHT22;38934;52.690;6.184;2023-04-19T13:18:34;14.70;59.20
53053;DHT22;38934;52.690;6.184;2023-04-19T13:21:00;15.00;59.60
53053;DHT22;38934;52.690;6.184;2023-04-19T13:23:25;14.70;58.50
53053;DHT22;38934;52.690;6.184;2023-04-19T13:25:53;14.70;59.10
53053;DHT22;38934;52.690;6.184;2023-04-19T13:28:21;15.00;60.30
53053;DHT22;38934;52.690;6.184;2023-04-19T13:30:46;14.80;60.20
53053;DHT22;38934;52.690;6.184;2023-04-19T13:33:12;14.80;58.80
53053;DHT22;38934;52.690;6.184;2023-04-19T13:35:39;14.60;59.20
53053;DHT22;38934;52.690;6.184;2023-04-19T13:38:04;15.20;60.70
53053;DHT22;38934;52.690;6.184;2023-04-19T13:40:30;15.10;59.80
53053;DHT22;38934;52.690;6.184;2023-04-19T13:42:55;14.80;60.10
53053;DHT22;38934;52.690;6.184;2023-04-19T13:45:21;15.30;59.70
53053;DHT22;38934;52.690;6.184;2023-04-19T13:47:46;14.80;60.10
53053;DHT22;38934;52.690;6.184;2023-04-19T13:50:12;14.80;59.90
53053;DHT22;38934;52.690;6.184;2023-04-19T13:52:39;14.80;61.30
53053;DHT22;38934;52.690;6.184;2023-04-19T13:55:07;14.80;60.80
53053;DHT22;38934;52.690;6.184;2023-04-19T13:57:32;14.70;60.60
53053;DHT22;38934;52.690;6.184;2023-04-19T13:59:58;14.70;58.90
53053;DHT22;38934;52.690;6.184;2023-04-19T14:02:30;14.60;59.50
53053;DHT22;38934;52.690;6.184;2023-04-19T14:05:14;14.90;60.60
53053;DHT22;38934;52.690;6.184;2023-04-19T14:07:40;14.60;60.70
53053;DHT22;38934;52.690;6.184;2023-04-19T14:10:07;14.70;61.70
53053;DHT22;38934;52.690;6.184;2023-04-19T14:12:33;14.70;61.70
53053;DHT22;38934;52.690;6.184;2023-04-19T14:14:59;14.60;61.90
53053;DHT22;38934;52.690;6.184;2023-04-19T14:17:26;14.60;62.10
53053;DHT22;38934;52.690;6.184;2023-04-19T14:19:56;14.60;62.70
53053;DHT22;38934;52.690;6.184;2023-04-19T14:22:23;14.60;62.00
53053;DHT22;38934;52.690;6.184;2023-04-19T14:24:48;14.60;62.40
53053;DHT22;38934;52.690;6.184;2023-04-19T14:27:14;14.60;62.60
53053;DHT22;38934;52.690;6.184;2023-04-19T14:29:40;14.60;63.30
53053;DHT22;38934;52.690;6.184;2023-04-19T14:32:05;15.30;63.90
53053;DHT22;38934;52.690;6.184;2023-04-19T14:34:31;14.70;64.20
53053;DHT22;38934;52.690;6.184;2023-04-19T14:36:57;15.00;64.90
53053;DHT22;38934;52.690;6.184;2023-04-19T14:39:27;15.40;64.70
53053;DHT22;38934;52.690;6.184;2023-04-19T14:41:53;14.70;65.10
53053;DHT22;38934;52.690;6.184;2023-04-19T14:44:29;14.70;64.40
53053;DHT22;38934;52.690;6.184;2023-04-19T14:46:54;14.70;64.60
53053;DHT22;38934;52.690;6.184;2023-04-19T14:49:20;14.70;65.30
53053;DHT22;38934;52.690;6.184;2023-04-19T14:51:46;15.10;63.80
53053;DHT22;38934;52.690;6.184;2023-04-19T14:54:15;14.70;64.00
53053;DHT22;38934;52.690;6.184;2023-04-19T14:56:43;14.70;63.10
53053;DHT22;38934;52.690;6.184;2023-04-19T14:59:10;15.00;62.50
53053;DHT22;38934;52.690;6.184;2023-04-19T15:01:36;15.30;63.10
53053;DHT22;38934;52.690;6.184;2023-04-19T15:04:05;14.90;63.60
53053;DHT22;38934;52.690;6.184;2023-04-19T15:06:30;14.70;64.20
53053;DHT22;38934;52.690;6.184;2023-04-19T15:08:58;14.80;62.80
53053;DHT22;38934;52.690;6.184;2023-04-19T15:11:26;14.80;62.00
53053;DHT22;38934;52.690;6.184;2023-04-19T15:13:58;15.30;63.40
53053;DHT22;38934;52.690;6.184;2023-04-19T15:16:26;14.60;62.50
53053;DHT22;38934;52.690;6.184;2023-04-19T15:18:52;14.70;62.30
53053;DHT22;38934;52.690;6.184;2023-04-19T15:21:21;15.20;63.00
53053;DHT22;38934;52.690;6.184;2023-04-19T15:23:48;14.60;62.70
53053;DHT22;38934;52.690;6.184;2023-04-19T15:26:15;14.70;62.00
53053;DHT22;38934;52.690;6.184;2023-04-19T15:28:40;14.70;60.70
53053;DHT22;38934;52.690;6.184;2023-04-19T15:31:07;14.90;59.60
53053;DHT22;38934;52.690;6.184;2023-04-19T15:33:35;14.50;60.10
53053;DHT22;38934;52.690;6.184;2023-04-19T15:36:11;14.50;59.90
53053;DHT22;38934;52.690;6.184;2023-04-19T15:38:37;14.50;61.10
53053;DHT22;38934;52.690;6.184;2023-04-19T15:41:04;14.60;60.40
53053;DHT22;38934;52.690;6.184;2023-04-19T15:43:29;14.70;61.20
53053;DHT22;38934;52.690;6.184;2023-04-19T15:45:55;15.00;61.70
53053;DHT22;38934;52.690;6.184;2023-04-19T15:48:20;15.00;61.00
53053;DHT22;38934;52.690;6.184;2023-04-19T15:50:46;15.00;60.60
53053;DHT22;38934;52.690;6.184;2023-04-19T15:53:12;15.40;61.10
53053;DHT22;38934;52.690;6.184;2023-04-19T15:55:38;14.80;60.00
53053;DHT22;38934;52.690;6.184;2023-04-19T15:58:05;14.50;59.80
53053;DHT22;38934;52.690;6.184;2023-04-19T16:00:31;14.30;60.60
53053;DHT22;38934;52.690;6.184;2023-04-19T16:02:59;14.10;60.50
53053;DHT22;38934;52.690;6.184;2023-04-19T16:05:26;14.10;61.70
53053;DHT22;38934;52.690;6.184;2023-04-19T16:08:07;14.20;61.70
53053;DHT22;38934;52.690;6.184;2023-04-19T16:10:33;14.20;63.40
53053;DHT22;38934;52.690;6.184;2023-04-19T16:12:59;14.30;62.20
53053;DHT22;38934;52.690;6.184;2023-04-19T16:15:26;14.40;62.00
53053;DHT22;38934;52.690;6.184;2023-04-19T16:17:52;14.40;62.90
53053;DHT22;38934;52.690;6.184;2023-04-19T16:20:18;14.40;62.20
53053;DHT22;38934;52.690;6.184;2023-04-19T16:22:45;14.40;61.40
53053;DHT22;38934;52.690;6.184;2023-04-19T16:25:11;14.30;61.30
53053;DHT22;38934;52.690;6.184;2023-04-19T16:27:43;14.20;61.60
53053;DHT22;38934;52.690;6.184;2023-04-19T16:30:09;14.30;62.30
53053;DHT22;38934;52.690;6.184;2023-04-19T16:32:35;14.30;61.90
53053;DHT22;38934;52.690;6.184;2023-04-19T16:35:02;14.30;61.90
53053;DHT22;38934;52.690;6.184;2023-04-19T16:37:28;14.20;60.70
53053;DHT22;38934;52.690;6.184;2023-04-19T16:39:54;14.90;61.20
53053;DHT22;38934;52.690;6.184;2023-04-19T16:42:19;14.10;63.40
53053;DHT22;38934;52.690;6.184;2023-04-19T16:44:46;14.20;65.10
53053;DHT22;38934;52.690;6.184;2023-04-19T16:47:11;14.30;64.10
53053;DHT22;38934;52.690;6.184;2023-04-19T16:49:37;14.00;61.90
53053;DHT22;38934;52.690;6.184;2023-04-19T16:52:04;14.10;60.80
53053;DHT22;38934;52.690;6.184;2023-04-19T16:54:31;14.00;61.10
53053;DHT22;38934;52.690;6.184;2023-04-19T16:56:58;14.40;61.70
53053;DHT22;38934;52.690;6.184;2023-04-19T16:59:23;14.00;62.20
53053;DHT22;38934;52.690;6.184;2023-04-19T17:01:49;13.90;62.40
53053;DHT22;38934;52.690;6.184;2023-04-19T17:04:16;13.90;61.90
53053;DHT22;38934;52.690;6.184;2023-04-19T17:06:42;13.90;60.50
53053;DHT22;38934;52.690;6.184;2023-04-19T17:09:08;13.80;61.60
53053;DHT22;38934;52.690;6.184;2023-04-19T17:11:35;13.80;61.60
53053;DHT22;38934;52.690;6.184;2023-04-19T17:14:01;13.70;62.70
53053;DHT22;38934;52.690;6.184;2023-04-19T17:16:26;13.70;64.20
53053;DHT22;38934;52.690;6.184;2023-04-19T17:18:54;13.60;66.00
53053;DHT22;38934;52.690;6.184;2023-04-19T17:21:20;13.50;67.10
53053;DHT22;38934;52.690;6.184;2023-04-19T17:23:48;14.20;68.60
53053;DHT22;38934;52.690;6.184;2023-04-19T17:26:25;13.70;66.40
53053;DHT22;38934;52.690;6.184;2023-04-19T17:28:51;13.30;65.50
53053;DHT22;38934;52.690;6.184;2023-04-19T17:31:17;13.30;64.60
53053;DHT22;38934;52.690;6.184;2023-04-19T17:33:46;13.60;64.10
53053;DHT22;38934;52.690;6.184;2023-04-19T17:36:12;13.20;62.20
53053;DHT22;38934;52.690;6.184;2023-04-19T17:38:37;13.10;62.10
53053;DHT22;38934;52.690;6.184;2023-04-19T17:41:04;13.10;61.50
53053;DHT22;38934;52.690;6.184;2023-04-19T17:43:37;13.10;60.90
53053;DHT22;38934;52.690;6.184;2023-04-19T17:46:04;13.00;60.50
53053;DHT22;38934;52.690;6.184;2023-04-19T17:48:30;12.90;60.20
53053;DHT22;38934;52.690;6.184;2023-04-19T17:50:59;12.90;59.60
53053;DHT22;38934;52.690;6.184;2023-04-19T17:53:25;13.20;59.60
53053;DHT22;38934;52.690;6.184;2023-04-19T17:55:50;12.80;58.50
53053;DHT22;38934;52.690;6.184;2023-04-19T17:58:16;13.60;58.70
53053;DHT22;38934;52.690;6.184;2023-04-19T18:00:43;12.70;57.20
53053;DHT22;38934;52.690;6.184;2023-04-19T18:03:08;12.60;57.70
53053;DHT22;38934;52.690;6.184;2023-04-19T18:05:37;12.50;57.10
53053;DHT22;38934;52.690;6.184;2023-04-19T18:08:10;12.40;57.90
53053;DHT22;38934;52.690;6.184;2023-04-19T18:10:41;12.40;57.30
53053;DHT22;38934;52.690;6.184;2023-04-19T18:13:07;12.30;58.40
53053;DHT22;38934;52.690;6.184;2023-04-19T18:15:32;12.80;59.30
53053;DHT22;38934;52.690;6.184;2023-04-19T18:17:58;12.10;59.10
53053;DHT22;38934;52.690;6.184;2023-04-19T18:20:24;12.00;58.10
53053;DHT22;38934;52.690;6.184;2023-04-19T18:22:50;11.90;58.50
53053;DHT22;38934;52.690;6.184;2023-04-19T18:25:18;11.80;59.10
53053;DHT22;38934;52.690;6.184;2023-04-19T18:27:44;11.70;59.40
53053;DHT22;38934;52.690;6.184;2023-04-19T18:30:10;11.70;59.90
53053;DHT22;38934;52.690;6.184;2023-04-19T18:32:35;11.60;60.10
53053;DHT22;38934;52.690;6.184;2023-04-19T18:35:02;11.50;60.30
53053;DHT22;38934;52.690;6.184;2023-04-19T18:37:33;11.40;60.50
53053;DHT22;38934;52.690;6.184;2023-04-19T18:39:58;11.30;60.30
53053;DHT22;38934;52.690;6.184;2023-04-19T18:42:24;11.30;60.60
53053;DHT22;38934;52.690;6.184;2023-04-19T18:44:50;11.30;61.00
53053;DHT22;38934;52.690;6.184;2023-04-19T18:47:15;11.20;61.10
53053;DHT22;38934;52.690;6.184;2023-04-19T18:49:41;11.10;61.80
53053;DHT22;38934;52.690;6.184;2023-04-19T18:52:07;11.00;61.60